sensor_id;sensor_type;location;lat;lon;timestamp;pressure;altitude;pressure_sealevel;temperature;humidity
64294;BME280;50636;45.596;5.258;2023-01-31T00:00:40;99758.16;;;8.27;60.72
64294;BME280;50636;45.596;5.258;2023-01-31T00:03:05;99761.25;;;8.22;60.88
64294;BME280;50636;45.596;5.258;2023-01-31T00:05:31;99755.72;;;8.25;60.88
64294;BME280;50636;45.596;5.258;2023-01-31T00:07:56;99755.13;;;8.39;61.13
64294;BME280;50636;45.596;5.258;2023-01-31T00:10:22;99757.44;;;8.43;60.93
64294;BME280;50636;45.596;5.258;2023-01-31T00:12:48;99751.56;;;8.49;60.94
64294;BME280;50636;45.596;5.258;2023-01-31T00:15:13;99752.19;;;8.43;61.27
64294;BME280;50636;45.596;5.258;2023-01-31T00:17:41;99752.53;;;8.48;60.95
64294;BME280;50636;45.596;5.258;2023-01-31T00:20:07;99754.81;;;8.51;60.95
64294;BME280;50636;45.596;5.258;2023-01-31T00:22:33;99750.09;;;8.54;60.56
64294;BME280;50636;45.596;5.258;2023-01-31T00:24:58;99745.69;;;8.55;60.89
64294;BME280;50636;45.596;5.258;2023-01-31T00:27:24;99745.22;;;8.59;60.45
64294;BME280;50636;45.596;5.258;2023-01-31T00:29:50;99736.06;;;8.55;60.45
64294;BME280;50636;45.596;5.258;2023-01-31T00:32:15;99732.59;;;8.63;60.47
64294;BME280;50636;45.596;5.258;2023-01-31T00:34:41;99738.69;;;8.64;60.38
64294;BME280;50636;45.596;5.258;2023-01-31T00:37:07;99737.03;;;8.63;60.41
64294;BME280;50636;45.596;5.258;2023-01-31T00:39:32;99733.84;;;8.34;60.87
64294;BME280;50636;45.596;5.258;2023-01-31T00:41:58;99733.97;;;8.25;60.78
64294;BME280;50636;45.596;5.258;2023-01-31T00:44:23;99730.53;;;8.24;61.13
64294;BME280;50636;45.596;5.258;2023-01-31T00:46:49;99728.41;;;8.19;61.38
64294;BME280;50636;45.596;5.258;2023-01-31T00:49:14;99726.47;;;8.30;61.79
64294;BME280;50636;45.596;5.258;2023-01-31T00:51:40;99723.25;;;8.44;61.20
64294;BME280;50636;45.596;5.258;2023-01-31T00:54:06;99714.25;;;8.47;60.63
64294;BME280;50636;45.596;5.258;2023-01-31T00:56:31;99722.78;;;8.49;60.91
64294;BME280;50636;45.596;5.258;2023-01-31T00:58:57;99713.97;;;8.50;60.27
64294;BME280;50636;45.596;5.258;2023-01-31T01:01:25;99725.88;;;8.44;60.61
64294;BME280;50636;45.596;5.258;2023-01-31T01:03:52;99732.09;;;8.43;61.17
64294;BME280;50636;45.596;5.258;2023-01-31T01:06:18;99722.56;;;8.34;61.02
64294;BME280;50636;45.596;5.258;2023-01-31T01:08:45;99732.84;;;8.27;60.89
64294;BME280;50636;45.596;5.258;2023-01-31T01:13:38;99741.63;;;8.18;60.84
64294;BME280;50636;45.596;5.258;2023-01-31T01:16:13;99738.34;;;8.08;61.13
64294;BME280;50636;45.596;5.258;2023-01-31T01:18:39;99737.81;;;8.04;62.27
64294;BME280;50636;45.596;5.258;2023-01-31T01:23:32;99746.47;;;8.05;61.39
64294;BME280;50636;45.596;5.258;2023-01-31T01:25:58;99743.84;;;7.96;61.03
64294;BME280;50636;45.596;5.258;2023-01-31T01:28:23;99759.03;;;7.93;61.58
64294;BME280;50636;45.596;5.258;2023-01-31T01:30:49;99755.44;;;7.94;61.66
64294;BME280;50636;45.596;5.258;2023-01-31T01:33:14;99766.88;;;7.93;61.37
64294;BME280;50636;45.596;5.258;2023-01-31T01:35:40;99784.00;;;7.87;61.98
64294;BME280;50636;45.596;5.258;2023-01-31T01:38:06;99761.59;;;7.85;62.23
64294;BME280;50636;45.596;5.258;2023-01-31T01:40:36;99772.38;;;7.82;61.82
64294;BME280;50636;45.596;5.258;2023-01-31T01:43:03;99768.34;;;7.61;62.59
64294;BME280;50636;45.596;5.258;2023-01-31T01:45:29;99764.22;;;7.58;62.66
64294;BME280;50636;45.596;5.258;2023-01-31T01:48:02;99778.41;;;7.56;63.43
64294;BME280;50636;45.596;5.258;2023-01-31T01:50:35;99778.13;;;7.59;63.45
64294;BME280;50636;45.596;5.258;2023-01-31T01:53:07;99781.59;;;7.68;62.93
64294;BME280;50636;45.596;5.258;2023-01-31T01:55:40;99778.16;;;7.67;63.49
64294;BME280;50636;45.596;5.258;2023-01-31T01:58:22;99786.34;;;7.72;63.32
64294;BME280;50636;45.596;5.258;2023-01-31T02:00:49;99789.66;;;7.83;63.38
64294;BME280;50636;45.596;5.258;2023-01-31T02:03:15;99786.00;;;7.93;63.13
64294;BME280;50636;45.596;5.258;2023-01-31T02:05:50;99784.88;;;8.04;63.27
64294;BME280;50636;45.596;5.258;2023-01-31T02:08:19;99783.94;;;8.05;62.83
64294;BME280;50636;45.596;5.258;2023-01-31T02:13:19;99783.72;;;7.98;63.02
64294;BME280;50636;45.596;5.258;2023-01-31T02:15:45;99776.34;;;7.94;62.92
64294;BME280;50636;45.596;5.258;2023-01-31T02:18:11;99775.66;;;7.84;63.02
64294;BME280;50636;45.596;5.258;2023-01-31T02:23:45;99778.84;;;7.69;63.46
64294;BME280;50636;45.596;5.258;2023-01-31T02:34:18;99786.75;;;7.86;64.17
64294;BME280;50636;45.596;5.258;2023-01-31T02:39:55;99784.41;;;8.09;63.83
64294;BME280;50636;45.596;5.258;2023-01-31T02:43:26;99785.94;;;8.19;63.42
64294;BME280;50636;45.596;5.258;2023-01-31T02:45:30;99781.81;;;8.43;63.20
64294;BME280;50636;45.596;5.258;2023-01-31T02:53:33;99799.69;;;8.30;62.49
64294;BME280;50636;45.596;5.258;2023-01-31T02:56:05;99794.22;;;8.41;63.31
64294;BME280;50636;45.596;5.258;2023-01-31T02:59:10;99792.94;;;8.53;63.24
64294;BME280;50636;45.596;5.258;2023-01-31T03:01:43;99797.22;;;8.63;62.08
64294;BME280;50636;45.596;5.258;2023-01-31T03:04:11;99794.56;;;8.54;61.32
64294;BME280;50636;45.596;5.258;2023-01-31T03:14:38;99801.50;;;8.72;60.94
64294;BME280;50636;45.596;5.258;2023-01-31T03:23:19;99822.53;;;8.46;61.78
64294;BME280;50636;45.596;5.258;2023-01-31T03:25:47;99821.41;;;8.65;62.73
64294;BME280;50636;45.596;5.258;2023-01-31T03:28:17;99823.91;;;8.83;61.63
64294;BME280;50636;45.596;5.258;2023-01-31T03:31:01;99825.06;;;8.88;61.49
64294;BME280;50636;45.596;5.258;2023-01-31T03:33:51;99831.91;;;8.81;61.06
64294;BME280;50636;45.596;5.258;2023-01-31T03:36:56;99837.50;;;8.78;61.28
64294;BME280;50636;45.596;5.258;2023-01-31T03:42:13;99842.59;;;8.96;61.29
64294;BME280;50636;45.596;5.258;2023-01-31T03:47:30;99838.00;;;8.90;60.43
64294;BME280;50636;45.596;5.258;2023-01-31T03:50:03;99841.59;;;8.89;60.55
64294;BME280;50636;45.596;5.258;2023-01-31T03:52:33;99846.97;;;8.79;60.65
64294;BME280;50636;45.596;5.258;2023-01-31T03:58:04;99851.84;;;8.57;60.66
64294;BME280;50636;45.596;5.258;2023-01-31T04:00:35;99856.69;;;8.44;60.43
64294;BME280;50636;45.596;5.258;2023-01-31T04:03:16;99863.09;;;8.24;61.64
64294;BME280;50636;45.596;5.258;2023-01-31T04:05:46;99867.66;;;8.22;62.10
64294;BME280;50636;45.596;5.258;2023-01-31T04:08:13;99861.97;;;8.26;61.86
64294;BME280;50636;45.596;5.258;2023-01-31T04:10:39;99873.09;;;8.28;62.03
64294;BME280;50636;45.596;5.258;2023-01-31T04:13:05;99869.38;;;8.39;62.32
64294;BME280;50636;45.596;5.258;2023-01-31T04:15:31;99867.28;;;8.43;61.58
64294;BME280;50636;45.596;5.258;2023-01-31T04:17:57;99861.50;;;8.39;61.66
64294;BME280;50636;45.596;5.258;2023-01-31T04:20:22;99869.75;;;8.44;61.66
64294;BME280;50636;45.596;5.258;2023-01-31T04:22:48;99866.50;;;8.50;61.87
64294;BME280;50636;45.596;5.258;2023-01-31T04:25:14;99863.91;;;8.50;61.38
64294;BME280;50636;45.596;5.258;2023-01-31T04:27:39;99867.75;;;8.38;61.77
64294;BME280;50636;45.596;5.258;2023-01-31T04:30:06;99868.41;;;8.40;62.08
64294;BME280;50636;45.596;5.258;2023-01-31T04:32:32;99865.84;;;8.48;62.06
64294;BME280;50636;45.596;5.258;2023-01-31T04:34:57;99874.22;;;8.52;62.17
64294;BME280;50636;45.596;5.258;2023-01-31T04:37:23;99877.31;;;8.47;61.86
64294;BME280;50636;45.596;5.258;2023-01-31T04:39:48;99874.84;;;8.46;62.36
64294;BME280;50636;45.596;5.258;2023-01-31T04:42:17;99876.25;;;8.40;62.32
64294;BME280;50636;45.596;5.258;2023-01-31T04:44:43;99880.56;;;8.41;62.16
64294;BME280;50636;45.596;5.258;2023-01-31T04:47:08;99880.63;;;8.31;61.38
64294;BME280;50636;45.596;5.258;2023-01-31T04:49:34;99883.34;;;8.22;62.49
64294;BME280;50636;45.596;5.258;2023-01-31T04:52:00;99876.03;;;8.25;62.45
64294;BME280;50636;45.596;5.258;2023-01-31T04:54:25;99879.84;;;8.13;62.30
64294;BME280;50636;45.596;5.258;2023-01-31T04:56:51;99882.94;;;8.08;62.48
64294;BME280;50636;45.596;5.258;2023-01-31T04:59:17;99876.53;;;8.03;62.33
64294;BME280;50636;45.596;5.258;2023-01-31T05:01:42;99881.75;;;8.03;63.37
64294;BME280;50636;45.596;5.258;2023-01-31T05:04:08;99882.66;;;8.11;62.96
64294;BME280;50636;45.596;5.258;2023-01-31T05:06:33;99883.47;;;8.12;62.80
64294;BME280;50636;45.596;5.258;2023-01-31T05:08:59;99885.31;;;8.19;63.24
64294;BME280;50636;45.596;5.258;2023-01-31T05:11:27;99882.53;;;8.21;62.60
64294;BME280;50636;45.596;5.258;2023-01-31T05:13:53;99882.31;;;8.14;62.39
64294;BME280;50636;45.596;5.258;2023-01-31T05:16:18;99885.38;;;8.02;62.97
64294;BME280;50636;45.596;5.258;2023-01-31T05:18:44;99885.84;;;7.97;62.71
64294;BME280;50636;45.596;5.258;2023-01-31T05:21:10;99883.31;;;7.87;62.67
64294;BME280;50636;45.596;5.258;2023-01-31T05:23:36;99884.69;;;7.73;63.26
64294;BME280;50636;45.596;5.258;2023-01-31T05:26:02;99890.25;;;7.78;64.54
64294;BME280;50636;45.596;5.258;2023-01-31T05:28:28;99877.09;;;7.88;64.29
64294;BME280;50636;45.596;5.258;2023-01-31T05:31:01;99886.84;;;8.04;64.49
64294;BME280;50636;45.596;5.258;2023-01-31T05:33:26;99889.50;;;8.12;63.98
64294;BME280;50636;45.596;5.258;2023-01-31T05:35:53;99897.06;;;8.15;62.89
64294;BME280;50636;45.596;5.258;2023-01-31T05:38:18;99903.09;;;8.16;62.97
64294;BME280;50636;45.596;5.258;2023-01-31T05:40:44;99901.66;;;8.22;63.10
64294;BME280;50636;45.596;5.258;2023-01-31T05:43:10;99897.09;;;8.24;63.41
64294;BME280;50636;45.596;5.258;2023-01-31T05:45:36;99895.34;;;8.32;62.99
64294;BME280;50636;45.596;5.258;2023-01-31T05:48:02;99904.38;;;8.38;62.90
64294;BME280;50636;45.596;5.258;2023-01-31T05:50:27;99905.97;;;8.39;62.68
64294;BME280;50636;45.596;5.258;2023-01-31T05:52:55;99904.38;;;8.38;62.30
64294;BME280;50636;45.596;5.258;2023-01-31T05:55:22;99910.06;;;8.33;62.50
64294;BME280;50636;45.596;5.258;2023-01-31T05:57:48;99910.84;;;8.26;62.48
64294;BME280;50636;45.596;5.258;2023-01-31T06:00:14;99913.34;;;8.09;62.45
64294;BME280;50636;45.596;5.258;2023-01-31T06:02:41;99911.56;;;8.10;63.16
64294;BME280;50636;45.596;5.258;2023-01-31T06:05:08;99916.78;;;8.10;63.02
64294;BME280;50636;45.596;5.258;2023-01-31T06:07:34;99914.31;;;8.08;62.92
64294;BME280;50636;45.596;5.258;2023-01-31T06:09:59;99919.53;;;8.08;62.62
64294;BME280;50636;45.596;5.258;2023-01-31T06:12:25;99917.69;;;8.00;63.42
64294;BME280;50636;45.596;5.258;2023-01-31T06:14:51;99924.19;;;7.96;63.08
64294;BME280;50636;45.596;5.258;2023-01-31T06:17:16;99923.63;;;7.85;63.29
64294;BME280;50636;45.596;5.258;2023-01-31T06:19:42;99926.91;;;7.87;63.88
64294;BME280;50636;45.596;5.258;2023-01-31T06:22:08;99923.34;;;7.88;63.35
64294;BME280;50636;45.596;5.258;2023-01-31T06:24:33;99935.16;;;7.74;62.75
64294;BME280;50636;45.596;5.258;2023-01-31T06:26:59;99940.53;;;7.54;63.04
64294;BME280;50636;45.596;5.258;2023-01-31T06:29:24;99941.28;;;7.29;64.21
64294;BME280;50636;45.596;5.258;2023-01-31T06:31:50;99945.34;;;7.13;64.40
64294;BME280;50636;45.596;5.258;2023-01-31T06:34:18;99951.31;;;7.06;64.69
64294;BME280;50636;45.596;5.258;2023-01-31T06:36:44;99951.22;;;6.97;64.73
64294;BME280;50636;45.596;5.258;2023-01-31T06:39:12;99956.34;;;6.89;65.13
64294;BME280;50636;45.596;5.258;2023-01-31T06:41:38;99956.25;;;6.81;64.77
64294;BME280;50636;45.596;5.258;2023-01-31T06:44:04;99952.28;;;6.77;65.58
64294;BME280;50636;45.596;5.258;2023-01-31T06:46:29;99963.09;;;6.82;66.15
64294;BME280;50636;45.596;5.258;2023-01-31T06:48:55;99966.09;;;6.87;66.48
64294;BME280;50636;45.596;5.258;2023-01-31T06:51:21;99957.88;;;6.82;65.99
64294;BME280;50636;45.596;5.258;2023-01-31T06:53:46;99968.06;;;6.75;66.21
64294;BME280;50636;45.596;5.258;2023-01-31T06:56:12;99967.00;;;6.68;65.77
64294;BME280;50636;45.596;5.258;2023-01-31T06:58:38;99965.94;;;6.61;65.84
64294;BME280;50636;45.596;5.258;2023-01-31T07:01:08;99972.25;;;6.58;66.85
64294;BME280;50636;45.596;5.258;2023-01-31T07:03:34;99974.69;;;6.70;66.42
64294;BME280;50636;45.596;5.258;2023-01-31T07:06:00;99977.13;;;6.81;66.78
64294;BME280;50636;45.596;5.258;2023-01-31T07:08:26;99974.13;;;7.04;66.82
64294;BME280;50636;45.596;5.258;2023-01-31T07:10:51;99992.97;;;7.25;66.93
64294;BME280;50636;45.596;5.258;2023-01-31T07:13:17;99973.59;;;7.46;66.24
64294;BME280;50636;45.596;5.258;2023-01-31T07:15:44;99976.28;;;7.54;65.54
64294;BME280;50636;45.596;5.258;2023-01-31T07:18:10;99979.69;;;7.54;65.58
64294;BME280;50636;45.596;5.258;2023-01-31T07:20:38;99982.19;;;7.56;63.98
64294;BME280;50636;45.596;5.258;2023-01-31T07:23:04;99985.16;;;7.43;64.09
64294;BME280;50636;45.596;5.258;2023-01-31T07:25:29;99986.44;;;7.39;64.46
64294;BME280;50636;45.596;5.258;2023-01-31T07:27:58;99989.53;;;7.25;64.21
64294;BME280;50636;45.596;5.258;2023-01-31T07:30:24;99988.28;;;7.29;64.34
64294;BME280;50636;45.596;5.258;2023-01-31T07:32:51;99994.00;;;7.32;64.32
64294;BME280;50636;45.596;5.258;2023-01-31T07:35:17;100001.38;;;7.47;63.60
64294;BME280;50636;45.596;5.258;2023-01-31T07:37:43;99999.66;;;7.55;63.52
64294;BME280;50636;45.596;5.258;2023-01-31T07:40:11;99997.03;;;7.55;63.37
64294;BME280;50636;45.596;5.258;2023-01-31T07:42:38;99998.31;;;7.51;63.56
64294;BME280;50636;45.596;5.258;2023-01-31T07:45:04;100003.81;;;7.66;63.54
64294;BME280;50636;45.596;5.258;2023-01-31T07:47:30;100002.88;;;7.85;62.81
64294;BME280;50636;45.596;5.258;2023-01-31T07:49:56;100004.56;;;7.76;61.99
64294;BME280;50636;45.596;5.258;2023-01-31T07:52:22;99997.31;;;7.52;62.59
64294;BME280;50636;45.596;5.258;2023-01-31T07:54:47;100000.94;;;7.24;63.51
64294;BME280;50636;45.596;5.258;2023-01-31T07:57:13;100013.19;;;7.23;63.72
64294;BME280;50636;45.596;5.258;2023-01-31T07:59:42;100019.22;;;7.24;64.15
64294;BME280;50636;45.596;5.258;2023-01-31T08:02:13;100021.84;;;7.24;63.91
64294;BME280;50636;45.596;5.258;2023-01-31T08:04:58;100032.38;;;7.32;65.22
64294;BME280;50636;45.596;5.258;2023-01-31T08:07:24;100024.13;;;8.08;64.39
64294;BME280;50636;45.596;5.258;2023-01-31T08:09:50;100022.59;;;8.94;62.39
64294;BME280;50636;45.596;5.258;2023-01-31T08:12:16;100021.84;;;9.10;60.70
64294;BME280;50636;45.596;5.258;2023-01-31T08:14:42;100042.78;;;9.02;60.33
64294;BME280;50636;45.596;5.258;2023-01-31T08:17:08;100038.31;;;8.94;59.81
64294;BME280;50636;45.596;5.258;2023-01-31T08:19:34;100037.78;;;8.90;59.57
64294;BME280;50636;45.596;5.258;2023-01-31T08:22:00;100038.75;;;8.89;60.64
64294;BME280;50636;45.596;5.258;2023-01-31T08:24:26;100037.25;;;9.21;59.92
64294;BME280;50636;45.596;5.258;2023-01-31T08:26:52;100038.31;;;10.36;58.69
64294;BME280;50636;45.596;5.258;2023-01-31T08:29:18;100047.38;;;11.37;55.92
64294;BME280;50636;45.596;5.258;2023-01-31T08:31:44;100047.34;;;11.46;54.24
64294;BME280;50636;45.596;5.258;2023-01-31T08:34:10;100054.06;;;11.09;53.50
64294;BME280;50636;45.596;5.258;2023-01-31T08:36:36;100050.53;;;10.85;54.37
64294;BME280;50636;45.596;5.258;2023-01-31T08:39:02;100054.97;;;10.68;53.81
64294;BME280;50636;45.596;5.258;2023-01-31T08:41:31;100050.41;;;10.46;53.81
64294;BME280;50636;45.596;5.258;2023-01-31T08:43:57;100065.00;;;10.15;54.12
64294;BME280;50636;45.596;5.258;2023-01-31T08:46:28;100057.41;;;9.79;55.05
64294;BME280;50636;45.596;5.258;2023-01-31T08:48:54;100064.59;;;9.61;55.10
64294;BME280;50636;45.596;5.258;2023-01-31T08:51:20;100079.41;;;9.36;55.79
64294;BME280;50636;45.596;5.258;2023-01-31T08:53:48;100075.59;;;9.22;55.97
64294;BME280;50636;45.596;5.258;2023-01-31T08:56:14;100074.72;;;9.13;56.37
64294;BME280;50636;45.596;5.258;2023-01-31T08:58:42;100078.81;;;9.08;56.49
64294;BME280;50636;45.596;5.258;2023-01-31T09:01:10;100078.28;;;9.04;56.80
64294;BME280;50636;45.596;5.258;2023-01-31T09:03:37;100075.19;;;9.51;56.38
64294;BME280;50636;45.596;5.258;2023-01-31T09:06:10;100077.09;;;9.92;55.82
64294;BME280;50636;45.596;5.258;2023-01-31T09:08:36;100075.84;;;10.37;54.59
64294;BME280;50636;45.596;5.258;2023-01-31T09:11:02;100078.81;;;10.58;53.96
64294;BME280;50636;45.596;5.258;2023-01-31T09:13:29;100084.06;;;10.58;53.31
64294;BME280;50636;45.596;5.258;2023-01-31T09:15:58;100081.44;;;10.50;53.75
64294;BME280;50636;45.596;5.258;2023-01-31T09:18:24;100087.16;;;10.78;53.86
64294;BME280;50636;45.596;5.258;2023-01-31T09:20:50;100089.34;;;11.14;52.62
64294;BME280;50636;45.596;5.258;2023-01-31T09:23:16;100092.91;;;11.30;52.06
64294;BME280;50636;45.596;5.258;2023-01-31T09:25:43;100091.34;;;11.52;52.34
64294;BME280;50636;45.596;5.258;2023-01-31T09:28:09;100091.91;;;12.02;50.67
64294;BME280;50636;45.596;5.258;2023-01-31T09:30:35;100096.75;;;12.36;50.24
64294;BME280;50636;45.596;5.258;2023-01-31T09:33:01;100098.75;;;12.72;49.62
64294;BME280;50636;45.596;5.258;2023-01-31T09:35:27;100093.97;;;13.35;48.23
64294;BME280;50636;45.596;5.258;2023-01-31T09:37:53;100086.44;;;14.76;46.54
64294;BME280;50636;45.596;5.258;2023-01-31T09:40:21;100084.88;;;15.71;44.12
64294;BME280;50636;45.596;5.258;2023-01-31T09:42:50;100080.94;;;16.42;42.21
64294;BME280;50636;45.596;5.258;2023-01-31T09:45:29;100075.56;;;15.89;42.37
64294;BME280;50636;45.596;5.258;2023-01-31T09:47:59;100083.13;;;16.05;42.38
64294;BME280;50636;45.596;5.258;2023-01-31T09:52:54;100071.50;;;18.72;38.79
64294;BME280;50636;45.596;5.258;2023-01-31T09:55:36;100068.78;;;20.13;36.78
64294;BME280;50636;45.596;5.258;2023-01-31T09:58:12;100074.16;;;20.60;34.07
64294;BME280;50636;45.596;5.258;2023-01-31T10:00:51;100080.72;;;20.34;34.20
64294;BME280;50636;45.596;5.258;2023-01-31T10:06:19;100078.00;;;19.68;34.88
64294;BME280;50636;45.596;5.258;2023-01-31T10:11:38;100069.28;;;21.45;31.69
64294;BME280;50636;45.596;5.258;2023-01-31T10:19:27;100077.84;;;20.94;30.89
64294;BME280;50636;45.596;5.258;2023-01-31T10:22:09;100085.97;;;20.29;31.76
64294;BME280;50636;45.596;5.258;2023-01-31T10:24:51;100081.63;;;20.04;32.16
64294;BME280;50636;45.596;5.258;2023-01-31T10:27:42;100075.91;;;20.90;30.52
64294;BME280;50636;45.596;5.258;2023-01-31T10:30:35;100069.41;;;21.50;30.16
64294;BME280;50636;45.596;5.258;2023-01-31T10:33:23;100060.38;;;22.13;29.48
64294;BME280;50636;45.596;5.258;2023-01-31T10:35:53;100050.59;;;22.36;27.43
64294;BME280;50636;45.596;5.258;2023-01-31T10:38:25;100053.22;;;22.70;28.24
64294;BME280;50636;45.596;5.258;2023-01-31T10:41:20;100056.38;;;23.06;27.46
64294;BME280;50636;45.596;5.258;2023-01-31T10:43:44;100053.34;;;23.68;26.63
64294;BME280;50636;45.596;5.258;2023-01-31T10:46:12;100040.13;;;23.35;26.48
64294;BME280;50636;45.596;5.258;2023-01-31T10:48:38;100038.00;;;23.37;26.50
64294;BME280;50636;45.596;5.258;2023-01-31T10:56:42;100022.47;;;19.53;29.07
64294;BME280;50636;45.596;5.258;2023-01-31T10:59:22;100027.50;;;18.94;30.03
64294;BME280;50636;45.596;5.258;2023-01-31T11:01:49;100020.63;;;19.05;30.52
64294;BME280;50636;45.596;5.258;2023-01-31T11:04:23;100011.97;;;18.73;30.61
64294;BME280;50636;45.596;5.258;2023-01-31T11:06:50;100009.31;;;18.04;31.86
64294;BME280;50636;45.596;5.258;2023-01-31T11:09:16;100002.53;;;17.76;30.52
64294;BME280;50636;45.596;5.258;2023-01-31T11:11:57;100012.09;;;17.91;31.04
64294;BME280;50636;45.596;5.258;2023-01-31T11:14:23;100009.69;;;18.76;30.35
64294;BME280;50636;45.596;5.258;2023-01-31T11:17:06;100002.59;;;19.56;28.44
64294;BME280;50636;45.596;5.258;2023-01-31T11:21:59;99997.25;;;19.86;27.53
64294;BME280;50636;45.596;5.258;2023-01-31T11:24:28;99992.34;;;19.71;27.64
64294;BME280;50636;45.596;5.258;2023-01-31T11:27:08;99984.97;;;19.55;27.44
64294;BME280;50636;45.596;5.258;2023-01-31T11:29:40;99979.59;;;19.73;27.36
64294;BME280;50636;45.596;5.258;2023-01-31T11:32:20;99976.19;;;20.08;27.36
64294;BME280;50636;45.596;5.258;2023-01-31T11:35:01;99961.19;;;19.84;27.27
64294;BME280;50636;45.596;5.258;2023-01-31T11:37:29;99956.47;;;19.55;28.21
64294;BME280;50636;45.596;5.258;2023-01-31T11:42:53;99945.00;;;20.97;26.98
64294;BME280;50636;45.596;5.258;2023-01-31T11:45:22;99952.44;;;21.23;26.32
64294;BME280;50636;45.596;5.258;2023-01-31T11:47:50;99943.47;;;21.58;25.68
64294;BME280;50636;45.596;5.258;2023-01-31T11:50:37;99940.53;;;21.14;25.70
64294;BME280;50636;45.596;5.258;2023-01-31T11:53:19;99927.84;;;20.92;24.68
64294;BME280;50636;45.596;5.258;2023-01-31T11:55:47;99925.91;;;20.76;24.86
64294;BME280;50636;45.596;5.258;2023-01-31T11:58:23;99921.78;;;20.57;25.54
64294;BME280;50636;45.596;5.258;2023-01-31T12:00:55;99914.63;;;20.33;24.97
64294;BME280;50636;45.596;5.258;2023-01-31T12:03:22;99917.19;;;20.28;25.22
64294;BME280;50636;45.596;5.258;2023-01-31T12:06:02;99911.75;;;20.11;26.04
64294;BME280;50636;45.596;5.258;2023-01-31T12:08:37;99902.38;;;20.09;25.95
64294;BME280;50636;45.596;5.258;2023-01-31T12:13:50;99900.28;;;20.11;25.69
64294;BME280;50636;45.596;5.258;2023-01-31T12:16:24;99885.88;;;19.65;25.86
64294;BME280;50636;45.596;5.258;2023-01-31T12:39:13;99884.00;;;19.53;27.54
64294;BME280;50636;45.596;5.258;2023-01-31T12:44:31;99888.75;;;19.51;27.48
64294;BME280;50636;45.596;5.258;2023-01-31T12:58:19;99879.38;;;20.31;27.96
64294;BME280;50636;45.596;5.258;2023-01-31T13:01:19;99868.72;;;20.31;27.47
64294;BME280;50636;45.596;5.258;2023-01-31T13:03:55;99864.81;;;20.22;27.57
64294;BME280;50636;45.596;5.258;2023-01-31T13:06:29;99863.69;;;20.06;27.56
64294;BME280;50636;45.596;5.258;2023-01-31T13:09:16;99857.97;;;19.67;27.09
64294;BME280;50636;45.596;5.258;2023-01-31T13:12:04;99858.72;;;19.21;27.31
64294;BME280;50636;45.596;5.258;2023-01-31T13:14:36;99863.19;;;18.78;28.00
64294;BME280;50636;45.596;5.258;2023-01-31T13:17:06;99858.56;;;18.55;28.15
64294;BME280;50636;45.596;5.258;2023-01-31T13:19:45;99864.56;;;18.32;28.49
64294;BME280;50636;45.596;5.258;2023-01-31T13:22:21;99861.56;;;17.85;28.78
64294;BME280;50636;45.596;5.258;2023-01-31T13:25:17;99856.63;;;17.06;30.60
64294;BME280;50636;45.596;5.258;2023-01-31T13:28:04;99866.09;;;16.50;31.75
64294;BME280;50636;45.596;5.258;2023-01-31T13:30:42;99852.13;;;16.16;31.96
64294;BME280;50636;45.596;5.258;2023-01-31T13:35:44;99856.88;;;15.74;33.03
64294;BME280;50636;45.596;5.258;2023-01-31T13:38:15;99857.66;;;15.48;34.00
64294;BME280;50636;45.596;5.258;2023-01-31T13:41:03;99850.13;;;15.32;34.53
64294;BME280;50636;45.596;5.258;2023-01-31T13:43:29;99847.91;;;15.35;34.46
64294;BME280;50636;45.596;5.258;2023-01-31T13:46:03;99850.31;;;15.17;34.62
64294;BME280;50636;45.596;5.258;2023-01-31T13:48:40;99848.28;;;15.12;35.07
64294;BME280;50636;45.596;5.258;2023-01-31T13:51:17;99839.34;;;15.13;35.45
64294;BME280;50636;45.596;5.258;2023-01-31T13:53:55;99837.13;;;15.24;34.99
64294;BME280;50636;45.596;5.258;2023-01-31T13:56:26;99831.19;;;15.15;35.53
64294;BME280;50636;45.596;5.258;2023-01-31T13:58:53;99824.50;;;15.26;35.43
64294;BME280;50636;45.596;5.258;2023-01-31T14:01:25;99831.63;;;15.38;35.01
64294;BME280;50636;45.596;5.258;2023-01-31T14:09:29;99819.81;;;15.08;35.51
64294;BME280;50636;45.596;5.258;2023-01-31T14:12:38;99823.34;;;14.60;36.11
64294;BME280;50636;45.596;5.258;2023-01-31T14:24:58;99813.28;;;14.35;36.06
64294;BME280;50636;45.596;5.258;2023-01-31T14:27:31;99819.44;;;14.08;37.08
64294;BME280;50636;45.596;5.258;2023-01-31T14:32:41;99825.72;;;13.72;37.82
64294;BME280;50636;45.596;5.258;2023-01-31T14:40:46;99828.66;;;13.34;38.78
64294;BME280;50636;45.596;5.258;2023-01-31T14:43:20;99830.97;;;13.01;38.87
64294;BME280;50636;45.596;5.258;2023-01-31T14:48:54;99835.53;;;12.70;39.09
64294;BME280;50636;45.596;5.258;2023-01-31T14:51:42;99843.81;;;12.52;39.88
64294;BME280;50636;45.596;5.258;2023-01-31T14:59:33;99850.84;;;12.01;40.92
64294;BME280;50636;45.596;5.258;2023-01-31T15:02:21;99830.56;;;11.86;41.21
64294;BME280;50636;45.596;5.258;2023-01-31T15:05:01;99846.84;;;11.67;41.70
64294;BME280;50636;45.596;5.258;2023-01-31T15:07:28;99854.91;;;11.50;41.78
64294;BME280;50636;45.596;5.258;2023-01-31T15:09:54;99864.03;;;11.39;42.80
64294;BME280;50636;45.596;5.258;2023-01-31T15:12:52;99850.31;;;11.29;42.66
64294;BME280;50636;45.596;5.258;2023-01-31T15:15:25;99858.19;;;11.06;43.54
64294;BME280;50636;45.596;5.258;2023-01-31T15:17:54;99862.94;;;11.03;43.98
64294;BME280;50636;45.596;5.258;2023-01-31T15:20:41;99853.66;;;11.23;44.30
64294;BME280;50636;45.596;5.258;2023-01-31T15:23:16;99853.41;;;11.33;44.13
64294;BME280;50636;45.596;5.258;2023-01-31T15:25:44;99848.25;;;11.39;43.99
64294;BME280;50636;45.596;5.258;2023-01-31T15:28:33;99844.91;;;11.46;44.43
64294;BME280;50636;45.596;5.258;2023-01-31T15:31:04;99841.03;;;11.56;43.80
64294;BME280;50636;45.596;5.258;2023-01-31T15:33:34;99850.44;;;11.51;43.51
64294;BME280;50636;45.596;5.258;2023-01-31T15:36:14;99848.59;;;11.36;44.12
64294;BME280;50636;45.596;5.258;2023-01-31T15:38:56;99853.81;;;11.22;44.89
64294;BME280;50636;45.596;5.258;2023-01-31T15:41:34;99854.34;;;11.17;44.59
64294;BME280;50636;45.596;5.258;2023-01-31T15:44:23;99855.06;;;11.03;44.74
64294;BME280;50636;45.596;5.258;2023-01-31T15:46:52;99853.72;;;10.84;44.44